Time;durP1;ratioP1;P1;durP2;ratioP2;P2;SDS_P1;SDS_P2;PMS_P1;PMS_P2;Temp;Humidity;BMP_temperature;BMP_pressure;BME280_temperature;BME280_humidity;BME280_pressure;Samples;Min_cycle;Max_cycle;Signal;HPM_P1;HPM_P2
2021/12/16 00:02:42;;;;;;;19.08;7.90;;;;;;;7.84;96.63;103521.97;4997640;28;20057;-81
2021/12/16 00:05:28;;;;;;;22.33;7.47;;;;;;;7.82;96.60;103529.81;4992902;28;20281;-80
2021/12/16 00:08:04;;;;;;;15.02;7.05;;;;;;;7.80;96.56;103518.44;4985304;28;20034;-81
2021/12/16 00:10:37;;;;;;;16.35;7.47;;;;;;;7.81;96.57;103527.16;4995663;28;20022;-81
2021/12/16 00:34:53;;;;;;;21.48;7.13;;;;;;;7.76;96.78;103529.69;4999014;28;20068;-80
2021/12/16 00:37:19;;;;;;;19.30;7.25;;;;;;;7.76;96.84;103521.00;5015985;28;20057;-81
2021/12/16 00:39:45;;;;;;;16.25;7.50;;;;;;;7.73;96.53;103521.84;5012436;28;20056;-80
2021/12/16 00:42:25;;;;;;;16.23;6.78;;;;;;;7.72;96.52;103516.59;5018039;28;20395;-79
2021/12/16 00:45:09;;;;;;;15.27;7.55;;;;;;;7.72;96.59;103525.31;5009156;28;20329;-80
2021/12/16 00:47:48;;;;;;;17.00;7.82;;;;;;;7.71;96.73;103520.06;5019435;28;20936;-80
2021/12/16 00:54:09;;;;;;;17.00;7.50;;;;;;;7.70;96.68;103527.00;5001028;28;20026;-81
2021/12/16 00:55:56;;;;;;;15.40;6.65;;;;;;;7.67;96.68;103529.56;5018833;28;20052;-81
2021/12/16 00:58:29;;;;;;;22.45;8.00;;;;;;;7.65;96.70;103526.06;5018805;28;20106;-81
2021/12/16 01:01:06;;;;;;;16.05;7.10;;;;;;;7.63;96.78;103533.88;5018764;28;20048;-81
2021/12/16 01:36:27;;;;;;;18.00;7.97;;;;;;;7.63;97.08;103567.78;5003850;28;20052;-81
2021/12/16 01:57:15;;;;;;;13.20;7.40;;;;;;;7.42;96.21;103585.69;5000543;28;20049;-81
2021/12/16 01:59:44;;;;;;;12.95;7.13;;;;;;;7.37;95.89;103589.94;5016596;28;20021;-81
2021/12/16 02:10:14;;;;;;;12.30;6.57;;;;;;;7.21;95.58;103584.47;5018833;28;20038;-81
2021/12/16 02:12:58;;;;;;;12.05;7.15;;;;;;;7.18;95.36;103589.63;4984607;28;20327;-81
2021/12/16 02:37:15;;;;;;;10.52;6.57;;;;;;;7.07;96.03;103604.19;5004880;28;20045;-81
2021/12/16 02:39:40;;;;;;;11.05;6.40;;;;;;;7.06;96.15;103611.16;4987053;28;20038;-81
2021/12/16 02:42:18;;;;;;;12.57;6.55;;;;;;;7.07;96.03;103617.22;5017421;28;20072;-81
2021/12/16 02:48:29;;;;;;;8.20;6.18;;;;;;;7.07;96.28;103625.91;5017950;28;20037;-81
2021/12/16 02:50:23;;;;;;;13.40;6.55;;;;;;;7.08;96.27;103614.66;5031520;28;20087;-81
2021/12/16 02:52:49;;;;;;;12.85;6.40;;;;;;;7.10;96.48;103612.09;5016949;28;20041;-81
2021/12/16 02:55:19;;;;;;;14.90;7.18;;;;;;;7.10;96.50;103607.75;5001262;28;20237;-81
2021/12/16 02:57:58;;;;;;;11.10;7.05;;;;;;;7.11;96.74;103619.03;5000543;28;20049;-81
2021/12/16 03:00:24;;;;;;;13.70;7.22;;;;;;;7.13;96.61;103611.25;5002384;28;20053;-81
2021/12/16 03:02:50;;;;;;;11.23;7.07;;;;;;;7.14;96.69;103616.50;5016731;28;20056;-81
2021/12/16 03:05:18;;;;;;;14.05;7.53;;;;;;;7.14;96.60;103618.22;4984722;28;20221;-81
2021/12/16 03:07:44;;;;;;;17.42;7.45;;;;;;;7.14;96.74;103613.88;5000478;28;20341;-81
2021/12/16 03:10:58;;;;;;;15.50;8.18;;;;;;;7.17;96.68;103607.84;5017097;28;20052;-81
2021/12/16 03:13:35;;;;;;;10.73;6.85;;;;;;;7.16;96.78;103606.97;5017135;28;20276;-81
2021/12/16 03:16:17;;;;;;;12.02;6.80;;;;;;;7.17;96.73;103605.22;5018215;28;20056;-81
2021/12/16 03:21:19;;;;;;;12.50;7.07;;;;;;;7.16;97.07;103601.75;5020766;28;20033;-81
2021/12/16 03:24:00;;;;;;;12.48;6.65;;;;;;;7.17;96.92;103605.22;5005009;28;20112;-81
2021/12/16 03:27:07;;;;;;;15.07;7.35;;;;;;;7.18;96.99;103607.00;5034602;28;20041;-81
2021/12/16 03:32:16;;;;;;;17.70;7.03;;;;;;;7.17;97.13;103613.94;5005421;28;20062;-81
2021/12/16 03:35:03;;;;;;;13.75;7.70;;;;;;;7.19;97.36;103624.41;5006390;28;20036;-81
2021/12/16 03:37:29;;;;;;;13.85;6.82;;;;;;;7.18;97.02;103615.69;5006114;28;20061;-81
2021/12/16 03:40:02;;;;;;;12.27;7.63;;;;;;;7.19;97.04;103611.38;5020393;28;20030;-81
2021/12/16 03:42:33;;;;;;;11.18;6.88;;;;;;;7.20;97.17;103611.38;5019977;28;20029;-81
2021/12/16 03:46:25;;;;;;;20.92;7.40;;;;;;;7.20;97.25;103615.72;5004084;28;20043;-81
2021/12/16 03:47:56;;;;;;;7.68;6.85;;;;;;;7.20;97.11;103613.97;5008109;28;20091;-81
2021/12/16 03:50:22;;;;;;;14.50;7.85;;;;;;;7.22;97.19;103614.00;5019769;28;20033;-81
2021/12/16 03:52:48;;;;;;;16.05;8.07;;;;;;;7.23;97.38;103621.00;5020919;28;20034;-81
2021/12/16 03:55:13;;;;;;;12.02;7.85;;;;;;;7.24;97.51;103617.53;5020515;28;20345;-82
2021/12/16 03:57:39;;;;;;;13.40;7.40;;;;;;;7.24;97.35;103618.44;5019397;28;20127;-82
2021/12/16 04:00:11;;;;;;;15.00;7.68;;;;;;;7.24;97.42;103618.44;5020040;28;20157;-82
2021/12/16 04:02:37;;;;;;;14.13;7.38;;;;;;;7.25;97.47;103604.53;5003111;28;20022;-83
2021/12/16 04:05:04;;;;;;;17.13;7.97;;;;;;;7.25;97.58;103604.53;5021095;28;20041;-83
2021/12/16 04:07:30;;;;;;;13.23;7.80;;;;;;;7.27;97.54;103605.41;5020806;28;20076;-83
2021/12/16 04:09:56;;;;;;;11.00;7.30;;;;;;;7.27;97.40;103618.47;5019736;28;20380;-83
2021/12/16 04:12:23;;;;;;;9.40;7.40;;;;;;;7.28;97.52;103617.63;5003090;28;20108;-82
2021/12/16 04:14:51;;;;;;;15.48;7.68;;;;;;;7.27;97.31;103618.47;5003159;28;20068;-83
2021/12/16 04:17:19;;;;;;;14.95;8.07;;;;;;;7.26;97.46;103618.47;5036532;28;20257;-83
2021/12/16 04:19:45;;;;;;;10.33;6.97;;;;;;;7.27;97.20;103622.81;5003025;28;20037;-83
2021/12/16 04:22:16;;;;;;;18.27;7.85;;;;;;;7.28;97.37;103627.19;5035975;28;20034;-83
2021/12/16 04:24:41;;;;;;;12.02;6.85;;;;;;;7.27;97.48;103622.81;5035023;28;20089;-83
2021/12/16 04:27:07;;;;;;;12.02;7.40;;;;;;;7.29;97.27;103629.81;5020551;28;20101;-83
2021/12/16 04:29:33;;;;;;;12.60;8.05;;;;;;;7.29;97.40;103627.22;5017992;28;20269;-83
2021/12/16 04:31:59;;;;;;;14.38;8.00;;;;;;;7.31;97.28;103629.81;5035586;28;20104;-83
2021/12/16 04:34:24;;;;;;;9.35;7.07;;;;;;;7.31;97.34;103629.81;5020396;28;20229;-83
2021/12/16 04:36:50;;;;;;;12.52;7.63;;;;;;;7.34;97.25;103634.22;5019358;28;20072;-83
2021/12/16 04:39:19;;;;;;;15.90;7.90;;;;;;;7.33;97.24;103627.25;5035870;28;20144;-83
2021/12/16 04:41:45;;;;;;;14.55;8.18;;;;;;;7.34;97.40;103626.41;5035249;28;20033;-83
2021/12/16 04:44:11;;;;;;;18.73;7.70;;;;;;;7.35;97.31;103620.31;5002917;28;20038;-83
2021/12/16 04:46:37;;;;;;;15.43;7.95;;;;;;;7.35;97.60;103626.44;5019512;28;20038;-83
2021/12/16 04:49:02;;;;;;;15.40;8.02;;;;;;;7.34;97.42;103622.06;5035507;28;20065;-83
2021/12/16 04:51:30;;;;;;;11.15;7.38;;;;;;;7.35;97.47;103621.22;5018503;28;20046;-83
2021/12/16 04:53:56;;;;;;;18.42;8.15;;;;;;;7.35;97.26;103625.53;5019222;28;20057;-83
2021/12/16 04:56:21;;;;;;;13.80;8.27;;;;;;;7.33;97.45;103620.31;5018725;28;20079;-83
2021/12/16 04:58:48;;;;;;;15.20;8.30;;;;;;;7.33;97.19;103619.41;4986156;28;20061;-83
2021/12/16 05:01:14;;;;;;;16.17;8.50;;;;;;;7.34;97.32;103631.63;5002777;28;20105;-83
2021/12/16 05:03:39;;;;;;;17.13;8.52;;;;;;;7.33;97.45;103630.75;5002265;28;20041;-83
2021/12/16 05:06:05;;;;;;;16.33;8.35;;;;;;;7.31;97.48;103635.03;5019986;28;20041;-83
2021/12/16 05:08:31;;;;;;;15.32;8.00;;;;;;;7.30;97.32;103633.28;5035137;28;20369;-83
2021/12/16 05:10:59;;;;;;;13.45;8.07;;;;;;;7.27;97.29;103639.31;5002339;28;20276;-83
2021/12/16 05:13:26;;;;;;;16.00;8.43;;;;;;;7.25;97.23;103638.41;5018238;28;20034;-82
2021/12/16 05:15:53;;;;;;;18.30;8.18;;;;;;;7.23;97.08;103645.31;5034509;28;20048;-83
2021/12/16 05:18:24;;;;;;;12.32;8.02;;;;;;;7.21;97.11;103641.81;5018425;28;20041;-82
2021/12/16 05:20:50;;;;;;;18.45;8.93;;;;;;;7.20;96.96;103650.47;5018431;28;20038;-82
2021/12/16 05:28:25;;;;;;;14.82;8.60;;;;;;;7.13;96.88;103648.63;5018269;28;20080;-83
2021/12/16 05:30:51;;;;;;;10.52;6.97;;;;;;;7.13;96.89;103660.75;5001676;28;20080;-83
2021/12/16 05:33:17;;;;;;;17.83;7.68;;;;;;;7.11;96.98;103653.81;5018210;28;20054;-83
2021/12/16 05:35:42;;;;;;;16.05;7.97;;;;;;;7.08;96.96;103664.16;5018227;28;20040;-83
2021/12/16 05:38:08;;;;;;;13.93;7.50;;;;;;;7.07;96.84;103664.13;5019457;28;20324;-83
2021/12/16 05:40:33;;;;;;;16.77;7.85;;;;;;;7.05;96.61;103660.63;5017590;28;20398;-83
2021/12/16 05:43:01;;;;;;;13.60;7.60;;;;;;;7.04;96.81;103661.47;5018510;28;20049;-83
2021/12/16 05:45:27;;;;;;;15.25;7.75;;;;;;;7.04;96.74;103677.09;5001860;28;20025;-83
2021/12/16 05:47:53;;;;;;;11.07;6.88;;;;;;;7.01;96.77;103679.66;5002012;28;20228;-83
2021/12/16 05:50:19;;;;;;;13.18;8.50;;;;;;;6.99;96.66;103674.41;5001494;28;20022;-83
2021/12/16 05:52:45;;;;;;;17.67;7.72;;;;;;;6.99;96.59;103677.03;5001265;28;20161;-83
2021/12/16 05:55:11;;;;;;;8.77;7.03;;;;;;;6.99;96.54;103671.81;5019514;28;20048;-83
2021/12/16 05:57:36;;;;;;;12.52;7.13;;;;;;;6.98;96.70;103674.38;5017753;28;20033;-83
2021/12/16 06:00:03;;;;;;;8.07;6.80;;;;;;;6.96;96.56;103670.88;5019039;28;20030;-83
2021/12/16 06:02:29;;;;;;;13.10;7.72;;;;;;;6.93;96.36;103674.31;5018486;28;20022;-83
2021/12/16 06:04:54;;;;;;;9.52;7.10;;;;;;;6.90;96.06;103675.09;5017856;28;20040;-83
2021/12/16 06:07:19;;;;;;;12.38;7.65;;;;;;;6.90;96.19;103684.66;5017551;28;20112;-83
2021/12/16 06:09:45;;;;;;;14.23;7.10;;;;;;;6.88;95.99;103683.75;5034000;28;20034;-83
2021/12/16 06:12:11;;;;;;;14.30;7.65;;;;;;;6.87;96.33;103687.19;5001602;28;20025;-83
2021/12/16 06:27:46;;;;;;;9.20;6.85;;;;;;;6.73;96.01;103697.31;5018011;28;20264;-82
2021/12/16 06:30:13;;;;;;;11.73;6.97;;;;;;;6.70;95.69;103702.47;5001718;28;20025;-83
2021/12/16 06:32:38;;;;;;;10.75;7.72;;;;;;;6.68;95.93;103704.19;5033603;28;20061;-82
2021/12/16 06:35:05;;;;;;;11.23;7.05;;;;;;;6.65;95.75;103701.50;5017764;28;20046;-83
2021/12/16 06:37:30;;;;;;;11.13;7.00;;;;;;;6.62;95.52;103699.72;5017358;28;20034;-83
2021/12/16 06:39:55;;;;;;;11.02;7.68;;;;;;;6.61;95.54;103703.16;5016975;28;20057;-83
2021/12/16 06:42:21;;;;;;;11.75;7.57;;;;;;;6.61;95.59;103710.09;4984220;28;20022;-82
2021/12/16 06:44:53;;;;;;;9.73;6.50;;;;;;;6.58;95.49;103713.50;5016958;28;20312;-83
2021/12/16 06:47:25;;;;;;;11.20;6.78;;;;;;;6.56;95.91;103722.13;5017383;28;20029;-83
2021/12/16 06:49:52;;;;;;;10.95;6.63;;;;;;;6.53;95.50;103721.22;5017514;28;20065;-82
2021/12/16 06:52:21;;;;;;;9.55;6.38;;;;;;;6.52;95.48;103719.44;5003106;28;20229;-83
2021/12/16 07:00:20;;;;;;;8.55;6.40;;;;;;;6.48;95.61;103735.84;5016893;28;20325;-83
2021/12/16 07:05:23;;;;;;;9.60;6.50;;;;;;;6.44;95.59;103736.63;5021384;28;20042;-83
2021/12/16 07:07:49;;;;;;;8.20;6.47;;;;;;;6.43;95.62;103742.69;5021847;28;20222;-83
2021/12/16 07:10:15;;;;;;;11.55;6.68;;;;;;;6.40;95.36;103745.19;5020753;28;20046;-83
2021/12/16 07:12:46;;;;;;;13.27;7.07;;;;;;;6.40;95.41;103744.34;5004115;28;20033;-83
2021/12/16 07:15:13;;;;;;;16.08;7.32;;;;;;;6.39;95.43;103750.41;4990173;28;20061;-83
2021/12/16 07:17:39;;;;;;;11.35;6.90;;;;;;;6.37;95.66;103760.78;4988151;28;20448;-83
2021/12/16 07:20:06;;;;;;;13.45;6.60;;;;;;;6.36;95.50;103765.94;5022524;28;20392;-82
2021/12/16 07:22:33;;;;;;;12.77;7.80;;;;;;;6.33;95.56;103769.31;5003946;28;20087;-83
2021/12/16 07:25:00;;;;;;;11.82;8.18;;;;;;;6.32;95.43;103767.59;5025505;28;20030;-83
2021/12/16 07:27:25;;;;;;;15.52;8.02;;;;;;;6.30;95.35;103767.53;5002126;28;20038;-83
2021/12/16 07:29:51;;;;;;;9.93;7.60;;;;;;;6.29;95.44;103776.22;5018976;28;20026;-82
2021/12/16 07:32:16;;;;;;;19.77;7.85;;;;;;;6.27;95.35;103782.19;5017578;28;21578;-82
2021/12/16 07:34:41;;;;;;;15.43;7.85;;;;;;;6.23;95.11;103781.25;5011506;28;20218;-83
2021/12/16 07:37:08;;;;;;;9.57;7.47;;;;;;;6.21;94.97;103782.94;5010679;28;20034;-83
2021/12/16 07:39:38;;;;;;;14.77;8.05;;;;;;;6.18;95.02;103782.84;4997265;28;20042;-83
2021/12/16 07:42:05;;;;;;;12.65;7.70;;;;;;;6.18;95.01;103795.88;5011256;28;20030;-83
2021/12/16 07:44:32;;;;;;;8.90;7.25;;;;;;;6.17;95.07;103801.03;5001544;28;20088;-83
2021/12/16 07:46:59;;;;;;;11.38;7.07;;;;;;;6.15;95.20;103803.63;5018459;28;20145;-83
2021/12/16 07:49:27;;;;;;;9.02;6.57;;;;;;;6.15;95.33;103801.88;5001650;28;20033;-83
2021/12/16 07:51:53;;;;;;;10.23;6.73;;;;;;;6.17;95.60;103808.84;5034632;28;20085;-83
2021/12/16 07:54:19;;;;;;;13.25;6.78;;;;;;;6.17;95.55;103817.53;5034548;28;20037;-83
2021/12/16 07:56:45;;;;;;;11.55;6.70;;;;;;;6.14;95.53;103814.84;5018047;28;20034;-83
2021/12/16 07:59:10;;;;;;;9.57;6.97;;;;;;;6.11;95.50;103818.28;4998646;28;20054;-83
2021/12/16 08:01:36;;;;;;;11.65;6.85;;;;;;;6.11;95.28;103810.47;5010465;28;20033;-82
2021/12/16 08:04:02;;;;;;;10.88;7.22;;;;;;;6.10;95.35;103824.31;5001566;28;20305;-83
2021/12/16 08:06:28;;;;;;;13.63;7.63;;;;;;;6.10;95.52;103829.50;5001351;28;20309;-83
2021/12/16 08:08:57;;;;;;;11.77;7.40;;;;;;;6.09;95.43;103829.47;5011910;28;20042;-83
2021/12/16 08:11:24;;;;;;;11.43;7.47;;;;;;;6.08;95.51;103831.19;5010867;28;20119;-83
2021/12/16 08:13:50;;;;;;;10.80;6.97;;;;;;;6.07;95.58;103828.53;5012260;28;20042;-83
2021/12/16 08:16:16;;;;;;;19.17;7.97;;;;;;;6.05;95.46;103831.09;5022285;28;20091;-83
2021/12/16 08:18:42;;;;;;;12.95;7.15;;;;;;;6.04;95.58;103829.34;5025592;28;20096;-82
2021/12/16 08:21:07;;;;;;;8.48;7.45;;;;;;;6.04;95.35;103825.84;5026179;28;20037;-82
2021/12/16 08:23:33;;;;;;;11.55;7.15;;;;;;;6.05;95.53;103832.84;5028437;28;20049;-82
2021/12/16 08:25:59;;;;;;;18.67;8.27;;;;;;;6.03;95.38;103832.78;5023474;28;20076;-82
2021/12/16 08:28:25;;;;;;;25.27;8.63;;;;;;;6.03;95.73;103834.53;5001107;28;20034;-83
2021/12/16 08:30:51;;;;;;;13.80;8.20;;;;;;;6.03;95.49;103834.53;5016664;28;20033;-82
2021/12/16 08:33:17;;;;;;;13.85;7.95;;;;;;;6.03;95.42;103844.94;5000977;28;20046;-83
2021/12/16 08:35:46;;;;;;;17.95;7.70;;;;;;;6.02;95.64;103840.53;5018398;28;20037;-83
2021/12/16 08:38:12;;;;;;;9.35;7.13;;;;;;;6.01;95.56;103842.28;5001031;28;20037;-83
2021/12/16 08:40:39;;;;;;;11.48;7.80;;;;;;;6.03;95.56;103850.13;5000604;28;20341;-82
2021/12/16 08:43:05;;;;;;;11.60;7.50;;;;;;;6.05;95.63;103861.44;4984501;28;20037;-83
2021/12/16 08:45:31;;;;;;;16.30;7.80;;;;;;;6.07;95.91;103859.78;4984338;28;20037;-83
2021/12/16 08:47:57;;;;;;;9.57;7.75;;;;;;;6.08;95.98;103856.34;5012790;28;20076;-83
2021/12/16 08:50:23;;;;;;;8.73;7.55;;;;;;;6.08;96.26;103851.13;5016858;28;20045;-83
2021/12/16 08:52:49;;;;;;;12.20;8.45;;;;;;;6.11;96.20;103869.41;5016094;28;20105;-83
2021/12/16 08:55:15;;;;;;;11.85;8.18;;;;;;;6.13;96.04;103873.84;5008875;28;20316;-83
2021/12/16 08:57:40;;;;;;;14.15;8.82;;;;;;;6.15;96.43;103866.06;4997096;28;20340;-83
2021/12/16 09:00:08;;;;;;;22.13;9.90;;;;;;;6.15;96.28;103868.69;5016121;28;20245;-83
2021/12/16 09:02:34;;;;;;;15.00;9.10;;;;;;;6.17;96.52;103872.19;5000917;28;20038;-83
2021/12/16 09:04:59;;;;;;;13.20;9.23;;;;;;;6.19;96.50;103880.91;5033056;28;20052;-83
2021/12/16 09:07:25;;;;;;;11.50;9.30;;;;;;;6.21;96.61;103878.38;5016892;28;20065;-83
2021/12/16 09:09:50;;;;;;;9.90;8.40;;;;;;;6.25;96.69;103890.59;5000331;28;20214;-83
2021/12/16 09:14:58;;;;;;;14.45;9.57;;;;;;;6.28;96.54;103891.56;5016017;28;20061;-83
2021/12/16 09:17:24;;;;;;;15.30;9.00;;;;;;;6.30;96.63;103881.19;5033239;28;20084;-83
2021/12/16 09:19:50;;;;;;;15.38;9.90;;;;;;;6.32;96.95;103888.19;5032119;28;20038;-83
2021/12/16 09:22:17;;;;;;;15.52;9.60;;;;;;;6.36;96.92;103888.28;4980769;28;20038;-83
2021/12/16 09:24:43;;;;;;;15.45;10.20;;;;;;;6.36;96.84;103878.75;5008330;28;20352;-83
2021/12/16 09:27:08;;;;;;;15.43;10.35;;;;;;;6.39;96.89;103888.38;4997600;28;20041;-83
2021/12/16 09:29:34;;;;;;;14.43;9.13;;;;;;;6.42;96.93;103894.53;4992240;28;20033;-83
2021/12/16 09:32:02;;;;;;;14.98;10.13;;;;;;;6.44;97.17;103903.25;5019998;28;20080;-83
2021/12/16 09:34:27;;;;;;;16.35;10.85;;;;;;;6.46;97.15;103898.09;4991799;28;20240;-83
2021/12/16 09:36:53;;;;;;;15.30;10.88;;;;;;;6.50;97.22;103905.16;5016567;28;20029;-83
2021/12/16 09:39:21;;;;;;;15.75;11.10;;;;;;;6.52;97.36;103899.13;5018598;28;20052;-83
2021/12/16 09:41:48;;;;;;;18.00;11.63;;;;;;;6.55;97.50;103890.53;5026937;28;20034;-83
2021/12/16 09:44:14;;;;;;;16.27;10.93;;;;;;;6.60;97.80;103901.91;5015313;28;20058;-83
2021/12/16 09:46:40;;;;;;;17.95;11.48;;;;;;;6.64;97.49;103898.56;4997150;28;20122;-82
2021/12/16 09:49:06;;;;;;;17.38;11.88;;;;;;;6.69;97.97;103902.16;4982357;28;20241;-81
2021/12/16 09:51:33;;;;;;;21.60;12.20;;;;;;;6.75;98.26;103900.53;5007925;28;20106;-81
2021/12/16 09:54:01;;;;;;;18.88;12.15;;;;;;;6.81;98.43;103908.50;5032928;28;20030;-82
2021/12/16 09:56:28;;;;;;;20.83;12.37;;;;;;;6.85;98.46;103905.13;4999227;28;20254;-82
2021/12/16 09:58:53;;;;;;;19.02;12.15;;;;;;;6.89;98.60;103919.97;4982938;28;20097;-81
2021/12/16 10:01:19;;;;;;;18.95;12.23;;;;;;;6.92;98.86;103918.31;5000050;28;20053;-82
2021/12/16 10:03:46;;;;;;;20.63;11.15;;;;;;;6.99;98.89;103914.16;5017539;28;20060;-81
2021/12/16 10:06:12;;;;;;;18.60;13.50;;;;;;;7.04;98.90;103917.75;5006145;28;20116;-80
2021/12/16 10:08:37;;;;;;;17.90;12.35;;;;;;;7.11;98.98;103919.66;4999826;28;20077;-82
2021/12/16 10:11:04;;;;;;;18.42;13.43;;;;;;;7.19;99.11;103921.56;5000925;28;20387;-81
2021/12/16 10:13:43;;;;;;;21.58;13.90;;;;;;;7.25;99.22;103922.56;5015614;28;20037;-81
2021/12/16 10:18:34;;;;;;;22.73;13.90;;;;;;;7.35;99.42;103921.06;5029293;28;19956;-82
2021/12/16 10:21:02;;;;;;;26.08;15.32;;;;;;;7.37;99.66;103929.78;5009928;28;20484;-82
2021/12/16 10:23:33;;;;;;;17.08;12.75;;;;;;;7.41;99.55;103935.94;4997062;28;20038;-82
2021/12/16 10:26:00;;;;;;;18.60;12.63;;;;;;;7.46;99.71;103934.34;5016101;28;20069;-82
2021/12/16 10:28:48;;;;;;;16.52;12.32;;;;;;;7.54;99.85;103929.28;5019646;28;20379;-82
2021/12/16 10:31:14;;;;;;;21.88;13.10;;;;;;;7.58;99.75;103931.97;5020275;28;20052;-82
2021/12/16 10:33:42;;;;;;;18.50;12.52;;;;;;;7.62;99.65;103932.91;5019194;28;20297;-82
2021/12/16 10:36:14;;;;;;;22.37;14.00;;;;;;;7.65;99.57;103930.38;5013682;28;20040;-82
2021/12/16 10:38:46;;;;;;;21.98;12.93;;;;;;;7.69;99.84;103929.59;5016205;28;20368;-81
2021/12/16 10:41:16;;;;;;;20.80;11.98;;;;;;;7.75;99.70;103934.03;5019355;28;20092;-83
2021/12/16 10:43:45;;;;;;;19.20;13.15;;;;;;;7.80;99.81;103930.69;5018830;28;20353;-82
2021/12/16 10:46:22;;;;;;;19.67;13.45;;;;;;;7.83;99.83;103928.13;4994278;28;20042;-81
2021/12/16 10:49:02;;;;;;;18.98;12.35;;;;;;;7.89;100.00;103927.38;5011283;28;20039;-81
2021/12/16 10:51:33;;;;;;;22.02;12.80;;;;;;;7.94;100.00;103925.75;5000611;28;20402;-81
2021/12/16 10:54:24;;;;;;;26.58;13.80;;;;;;;7.98;99.82;103932.78;5016554;28;20044;-81
2021/12/16 10:56:55;;;;;;;28.25;14.82;;;;;;;8.01;99.84;103940.69;5016095;28;20065;-81
2021/12/16 10:59:25;;;;;;;26.65;14.32;;;;;;;8.04;100.00;103929.41;5005080;28;20033;-82
2021/12/16 11:01:57;;;;;;;20.45;13.18;;;;;;;8.09;100.00;103938.22;5020352;28;20026;-82
2021/12/16 11:04:33;;;;;;;23.58;14.60;;;;;;;8.13;100.00;103933.94;5014054;28;20080;-82
2021/12/16 11:06:58;;;;;;;25.92;14.63;;;;;;;8.17;100.00;103933.16;5010860;28;20314;-83
2021/12/16 11:09:39;;;;;;;23.15;13.32;;;;;;;8.21;100.00;103937.56;5021512;28;20025;-82
2021/12/16 11:12:21;;;;;;;23.33;14.20;;;;;;;8.26;99.96;103938.53;5017132;28;20030;-82
2021/12/16 11:14:50;;;;;;;19.52;12.70;;;;;;;8.31;100.00;103936.00;5016795;28;20083;-82
2021/12/16 11:17:17;;;;;;;30.65;15.73;;;;;;;8.36;100.00;103934.38;5004389;28;20340;-82
2021/12/16 11:19:42;;;;;;;24.95;15.38;;;;;;;8.39;100.00;103931.81;4983870;28;20057;-82
2021/12/16 11:22:08;;;;;;;24.85;13.82;;;;;;;8.42;100.00;103930.19;5018897;28;20347;-82
2021/12/16 11:24:33;;;;;;;28.23;15.48;;;;;;;8.46;100.00;103941.56;5018447;28;20049;-82
2021/12/16 11:26:59;;;;;;;26.50;16.65;;;;;;;8.49;100.00;103940.72;5018391;28;20325;-82
2021/12/16 11:29:29;;;;;;;26.60;14.95;;;;;;;8.52;100.00;103925.97;5019084;28;20034;-83
2021/12/16 11:31:56;;;;;;;24.88;14.10;;;;;;;8.58;100.00;103925.19;5017567;28;20096;-83
2021/12/16 11:34:22;;;;;;;24.45;13.95;;;;;;;8.61;100.00;103915.69;5003459;28;20025;-83
2021/12/16 11:36:52;;;;;;;23.98;14.18;;;;;;;8.64;100.00;103923.59;4998215;28;20081;-82
2021/12/16 11:39:29;;;;;;;17.77;11.90;;;;;;;8.71;100.00;103923.66;5018803;28;20268;-82
2021/12/16 11:42:02;;;;;;;21.08;12.43;;;;;;;8.72;100.00;103921.09;5019091;28;20213;-84
2021/12/16 11:44:30;;;;;;;20.02;11.07;;;;;;;8.74;100.00;103921.13;5015500;28;20084;-84
2021/12/16 11:47:08;;;;;;;18.48;10.75;;;;;;;8.75;99.82;103921.16;5019025;28;20037;-84
2021/12/16 11:49:38;;;;;;;21.67;10.52;;;;;;;8.78;100.00;103917.69;5015932;28;20041;-82
2021/12/16 11:52:28;;;;;;;22.17;10.50;;;;;;;8.79;99.98;103925.56;5011080;28;20392;-83
2021/12/16 11:55:04;;;;;;;13.05;9.30;;;;;;;8.82;99.77;103927.31;5012920;28;20038;-84
2021/12/16 11:57:35;;;;;;;19.77;9.90;;;;;;;8.86;99.97;103926.53;5003351;28;20064;-83
2021/12/16 12:00:07;;;;;;;14.57;9.90;;;;;;;8.88;99.46;103914.38;5019234;28;20030;-83
2021/12/16 12:02:36;;;;;;;17.05;9.30;;;;;;;8.92;99.47;103923.16;4987444;28;20113;-82
2021/12/16 12:05:23;;;;;;;13.27;8.82;;;;;;;8.94;99.52;103924.03;5018330;28;20260;-83
2021/12/16 12:07:55;;;;;;;15.88;8.82;;;;;;;8.95;99.20;103929.31;5012651;28;20236;-83
2021/12/16 12:10:42;;;;;;;15.57;8.75;;;;;;;8.98;98.97;103923.22;5012422;28;20036;-82
2021/12/16 12:13:11;;;;;;;11.70;7.28;;;;;;;8.99;98.75;103917.16;5008726;28;20037;-83
2021/12/16 12:15:57;;;;;;;;;;;;;;;8.99;98.78;103920.66;4999141;28;20045;-82
2021/12/16 12:18:32;;;;;;;16.48;8.38;;;;;;;9.00;98.36;103921.50;5024868;28;20247;-83
2021/12/16 12:21:16;;;;;;;12.18;7.90;;;;;;;9.00;98.31;103914.56;5023121;28;20033;-83
2021/12/16 12:23:42;;;;;;;12.75;7.50;;;;;;;8.98;98.08;103908.41;5024390;28;20075;-83
2021/12/16 12:26:12;;;;;;;14.00;8.13;;;;;;;8.99;98.04;103907.56;5030870;28;20029;-83
2021/12/16 12:28:38;;;;;;;15.35;8.65;;;;;;;9.02;97.80;103906.72;5026777;28;20379;-83
2021/12/16 12:31:03;;;;;;;12.13;7.32;;;;;;;9.05;97.71;103905.91;5028186;28;20033;-83
2021/12/16 12:33:29;;;;;;;16.63;8.10;;;;;;;9.04;97.59;103902.44;5020559;28;20037;-83
2021/12/16 12:35:54;;;;;;;13.10;7.63;;;;;;;9.03;97.60;103896.28;4996822;28;20220;-82
2021/12/16 12:38:20;;;;;;;13.60;6.90;;;;;;;9.02;97.26;103897.16;5019346;28;20229;-82
2021/12/16 12:40:47;;;;;;;11.10;5.80;;;;;;;9.05;97.03;103901.56;5001771;28;20069;-82
2021/12/16 12:43:14;;;;;;;8.05;5.63;;;;;;;9.04;96.90;103905.03;5018528;28;20034;-83
2021/12/16 12:45:41;;;;;;;7.25;5.45;;;;;;;9.03;96.90;103893.69;5014566;28;20038;-82
2021/12/16 12:48:10;;;;;;;11.10;5.10;;;;;;;9.04;96.57;103899.81;5035424;28;20028;-82
2021/12/16 12:50:37;;;;;;;12.38;5.47;;;;;;;9.05;96.57;103906.78;5018321;28;20092;-82
2021/12/16 12:53:13;;;;;;;8.98;5.20;;;;;;;9.07;96.59;103909.44;5015878;28;20050;-82
2021/12/16 12:55:38;;;;;;;13.93;5.88;;;;;;;9.09;96.27;103912.94;5001030;28;20045;-83
2021/12/16 12:58:09;;;;;;;9.18;6.20;;;;;;;9.08;96.28;103906.84;5003935;28;20034;-83
2021/12/16 13:00:39;;;;;;;10.68;5.82;;;;;;;9.10;96.15;103907.72;5028965;28;20065;-83
2021/12/16 13:03:07;;;;;;;11.50;6.25;;;;;;;9.11;96.13;103912.09;5017739;28;20041;-83
2021/12/16 13:05:32;;;;;;;14.30;7.25;;;;;;;9.13;96.27;103910.41;4982641;28;20302;-83
2021/12/16 13:08:08;;;;;;;20.15;7.00;;;;;;;9.15;95.98;103905.16;5032859;28;20175;-83
2021/12/16 13:10:37;;;;;;;16.80;6.82;;;;;;;9.16;96.13;103909.56;5013917;28;20053;-83
2021/12/16 13:13:28;;;;;;;17.58;7.28;;;;;;;9.16;95.70;103899.09;5012699;28;20249;-83
2021/12/16 13:24:54;;;;;;;12.10;7.43;;;;;;;9.17;96.03;103916.56;5015974;28;20056;-82
2021/12/16 13:27:30;;;;;;;10.13;7.03;;;;;;;9.17;95.75;103911.31;5028118;28;20345;-83
2021/12/16 13:32:32;;;;;;;14.90;7.53;;;;;;;9.21;95.79;103913.13;4995745;28;20121;-83
2021/12/16 13:37:45;;;;;;;14.15;6.88;;;;;;;9.22;95.55;103907.91;5018468;28;20046;-83
2021/12/16 13:40:14;;;;;;;14.98;6.63;;;;;;;9.22;95.66;103905.31;4999725;28;20315;-83
2021/12/16 13:42:54;;;;;;;13.20;7.32;;;;;;;9.24;95.61;103907.94;5010444;28;20042;-83
2021/12/16 13:45:25;;;;;;;18.48;7.45;;;;;;;9.26;95.28;103903.59;5015439;28;20033;-83
2021/12/16 13:48:25;;;;;;;11.68;7.43;;;;;;;9.26;95.49;103908.84;5011791;28;20256;-83
2021/12/16 14:09:59;;;;;;;14.38;7.30;;;;;;;9.23;94.88;103906.16;5014607;28;20073;-83
2021/12/16 14:15:17;;;;;;;12.23;7.38;;;;;;;9.23;95.00;103919.25;5008136;28;20053;-83
2021/12/16 14:23:41;;;;;;;14.80;7.80;;;;;;;9.20;94.96;103927.03;5010864;28;20097;-83
2021/12/16 14:37:14;;;;;;;15.60;7.22;;;;;;;9.14;94.89;103921.72;5014670;28;20264;-83
2021/12/16 14:39:56;;;;;;;16.33;7.10;;;;;;;9.12;95.05;103928.69;5011765;28;20046;-83
2021/12/16 14:42:44;;;;;;;11.95;7.47;;;;;;;9.11;94.88;103933.00;5013591;28;20205;-83
2021/12/16 14:48:05;;;;;;;16.33;7.43;;;;;;;9.08;94.90;103930.38;5013153;28;20062;-82
2021/12/16 14:51:00;;;;;;;15.45;7.65;;;;;;;9.07;95.20;103932.94;5025772;28;20057;-82
2021/12/16 14:53:49;;;;;;;11.32;7.53;;;;;;;9.04;94.99;103931.19;5016121;28;20041;-82
2021/12/16 14:56:23;;;;;;;;;;;;;;;9.03;95.27;103937.25;5021657;28;20036;-83
2021/12/16 14:59:00;;;;;;;12.07;7.35;;;;;;;9.03;95.14;103940.75;5013498;28;20230;-83